sensor_id;sensor_type;location;lat;lon;timestamp;P1;durP1;ratioP1;P2;durP2;ratioP2
17983;SDS011;9117;52.420;20.728;2023-04-15T00:00:26;14.30;;;8.48;;
17983;SDS011;9117;52.420;20.728;2023-04-15T00:02:55;13.23;;;8.20;;
17983;SDS011;9117;52.420;20.728;2023-04-15T00:05:23;16.27;;;8.55;;
17983;SDS011;9117;52.420;20.728;2023-04-15T00:07:52;15.88;;;8.93;;
17983;SDS011;9117;52.420;20.728;2023-04-15T00:10:20;15.75;;;8.40;;
17983;SDS011;9117;52.420;20.728;2023-04-15T00:12:50;13.50;;;9.05;;
17983;SDS011;9117;52.420;20.728;2023-04-15T00:15:18;13.68;;;8.38;;
17983;SDS011;9117;52.420;20.728;2023-04-15T00:17:48;16.50;;;9.10;;
17983;SDS011;9117;52.420;20.728;2023-04-15T00:20:17;16.88;;;8.60;;
17983;SDS011;9117;52.420;20.728;2023-04-15T00:22:46;13.45;;;8.45;;
17983;SDS011;9117;52.420;20.728;2023-04-15T00:25:14;16.75;;;8.38;;
17983;SDS011;9117;52.420;20.728;2023-04-15T00:27:42;13.40;;;8.48;;
17983;SDS011;9117;52.420;20.728;2023-04-15T00:30:13;13.50;;;8.70;;
17983;SDS011;9117;52.420;20.728;2023-04-15T00:32:42;15.05;;;8.10;;
17983;SDS011;9117;52.420;20.728;2023-04-15T00:35:10;14.13;;;8.15;;
17983;SDS011;9117;52.420;20.728;2023-04-15T00:37:39;12.55;;;8.20;;
17983;SDS011;9117;52.420;20.728;2023-04-15T00:40:12;13.23;;;8.55;;
17983;SDS011;9117;52.420;20.728;2023-04-15T00:42:44;13.43;;;7.97;;
17983;SDS011;9117;52.420;20.728;2023-04-15T00:45:13;16.67;;;8.68;;
17983;SDS011;9117;52.420;20.728;2023-04-15T00:47:42;14.45;;;8.40;;
17983;SDS011;9117;52.420;20.728;2023-04-15T00:50:11;14.48;;;8.43;;
17983;SDS011;9117;52.420;20.728;2023-04-15T00:52:39;15.63;;;8.52;;
17983;SDS011;9117;52.420;20.728;2023-04-15T00:55:09;13.27;;;8.13;;
17983;SDS011;9117;52.420;20.728;2023-04-15T00:57:37;14.68;;;8.48;;
17983;SDS011;9117;52.420;20.728;2023-04-15T01:00:07;13.85;;;9.00;;
17983;SDS011;9117;52.420;20.728;2023-04-15T01:02:39;13.48;;;8.18;;
17983;SDS011;9117;52.420;20.728;2023-04-15T01:05:08;13.35;;;8.20;;
17983;SDS011;9117;52.420;20.728;2023-04-15T01:07:36;14.23;;;8.75;;
17983;SDS011;9117;52.420;20.728;2023-04-15T01:10:05;12.60;;;8.23;;
17983;SDS011;9117;52.420;20.728;2023-04-15T01:12:33;14.32;;;9.30;;
17983;SDS011;9117;52.420;20.728;2023-04-15T01:15:03;13.63;;;9.18;;
17983;SDS011;9117;52.420;20.728;2023-04-15T01:17:32;15.10;;;9.30;;
17983;SDS011;9117;52.420;20.728;2023-04-15T01:20:02;12.82;;;8.65;;
17983;SDS011;9117;52.420;20.728;2023-04-15T01:22:30;13.55;;;8.75;;
17983;SDS011;9117;52.420;20.728;2023-04-15T01:25:03;15.57;;;9.15;;
17983;SDS011;9117;52.420;20.728;2023-04-15T01:27:36;14.77;;;8.75;;
17983;SDS011;9117;52.420;20.728;2023-04-15T01:30:06;17.30;;;9.27;;
17983;SDS011;9117;52.420;20.728;2023-04-15T01:32:35;14.88;;;9.70;;
17983;SDS011;9117;52.420;20.728;2023-04-15T01:35:04;15.18;;;9.55;;
17983;SDS011;9117;52.420;20.728;2023-04-15T01:37:34;15.48;;;9.65;;
17983;SDS011;9117;52.420;20.728;2023-04-15T01:40:03;14.43;;;9.38;;
17983;SDS011;9117;52.420;20.728;2023-04-15T01:42:33;14.60;;;9.38;;
17983;SDS011;9117;52.420;20.728;2023-04-15T01:45:04;15.52;;;9.45;;
17983;SDS011;9117;52.420;20.728;2023-04-15T01:47:33;16.50;;;8.93;;
17983;SDS011;9117;52.420;20.728;2023-04-15T01:50:01;15.90;;;9.75;;
17983;SDS011;9117;52.420;20.728;2023-04-15T01:52:30;15.45;;;9.73;;
17983;SDS011;9117;52.420;20.728;2023-04-15T01:54:58;16.08;;;10.05;;
17983;SDS011;9117;52.420;20.728;2023-04-15T01:57:27;18.33;;;10.15;;
17983;SDS011;9117;52.420;20.728;2023-04-15T01:59:56;16.85;;;10.07;;
17983;SDS011;9117;52.420;20.728;2023-04-15T02:02:24;15.55;;;9.98;;
17983;SDS011;9117;52.420;20.728;2023-04-15T02:04:53;17.20;;;10.18;;
17983;SDS011;9117;52.420;20.728;2023-04-15T02:07:21;17.17;;;10.65;;
17983;SDS011;9117;52.420;20.728;2023-04-15T02:09:49;18.75;;;10.73;;
17983;SDS011;9117;52.420;20.728;2023-04-15T02:12:18;18.48;;;11.23;;
17983;SDS011;9117;52.420;20.728;2023-04-15T02:14:47;16.83;;;10.53;;
17983;SDS011;9117;52.420;20.728;2023-04-15T02:17:16;17.63;;;10.67;;
17983;SDS011;9117;52.420;20.728;2023-04-15T02:19:45;17.33;;;10.27;;
17983;SDS011;9117;52.420;20.728;2023-04-15T02:22:13;16.30;;;10.52;;
17983;SDS011;9117;52.420;20.728;2023-04-15T02:24:44;18.67;;;10.93;;
17983;SDS011;9117;52.420;20.728;2023-04-15T02:27:14;16.70;;;10.90;;
17983;SDS011;9117;52.420;20.728;2023-04-15T02:29:44;16.92;;;11.27;;
17983;SDS011;9117;52.420;20.728;2023-04-15T02:32:12;18.77;;;11.32;;
17983;SDS011;9117;52.420;20.728;2023-04-15T02:34:42;18.52;;;11.73;;
17983;SDS011;9117;52.420;20.728;2023-04-15T02:37:10;18.15;;;11.82;;
17983;SDS011;9117;52.420;20.728;2023-04-15T02:39:39;20.42;;;12.75;;
17983;SDS011;9117;52.420;20.728;2023-04-15T02:42:07;18.17;;;12.45;;
17983;SDS011;9117;52.420;20.728;2023-04-15T02:44:36;21.75;;;12.73;;
17983;SDS011;9117;52.420;20.728;2023-04-15T02:47:04;21.13;;;12.85;;
17983;SDS011;9117;52.420;20.728;2023-04-15T02:49:33;19.58;;;12.40;;
17983;SDS011;9117;52.420;20.728;2023-04-15T02:52:02;19.27;;;12.27;;
17983;SDS011;9117;52.420;20.728;2023-04-15T02:54:31;25.33;;;12.80;;
17983;SDS011;9117;52.420;20.728;2023-04-15T02:56:59;21.75;;;13.13;;
17983;SDS011;9117;52.420;20.728;2023-04-15T02:59:27;20.98;;;12.45;;
17983;SDS011;9117;52.420;20.728;2023-04-15T03:01:56;19.70;;;11.90;;
17983;SDS011;9117;52.420;20.728;2023-04-15T03:04:26;20.13;;;12.43;;
17983;SDS011;9117;52.420;20.728;2023-04-15T03:06:55;23.10;;;13.77;;
17983;SDS011;9117;52.420;20.728;2023-04-15T03:09:25;23.47;;;13.40;;
17983;SDS011;9117;52.420;20.728;2023-04-15T03:11:53;21.50;;;13.90;;
17983;SDS011;9117;52.420;20.728;2023-04-15T03:14:22;24.80;;;13.70;;
17983;SDS011;9117;52.420;20.728;2023-04-15T03:16:51;23.92;;;15.32;;
17983;SDS011;9117;52.420;20.728;2023-04-15T03:19:19;25.53;;;15.27;;
17983;SDS011;9117;52.420;20.728;2023-04-15T03:21:47;26.17;;;15.50;;
17983;SDS011;9117;52.420;20.728;2023-04-15T03:24:15;24.35;;;15.40;;
17983;SDS011;9117;52.420;20.728;2023-04-15T03:26:45;25.37;;;14.93;;
17983;SDS011;9117;52.420;20.728;2023-04-15T03:29:13;25.03;;;15.17;;
17983;SDS011;9117;52.420;20.728;2023-04-15T03:31:41;28.42;;;15.55;;
17983;SDS011;9117;52.420;20.728;2023-04-15T03:34:09;23.50;;;14.80;;
17983;SDS011;9117;52.420;20.728;2023-04-15T03:36:37;25.83;;;14.53;;
17983;SDS011;9117;52.420;20.728;2023-04-15T03:39:06;28.23;;;14.77;;
17983;SDS011;9117;52.420;20.728;2023-04-15T03:41:34;24.83;;;14.37;;
17983;SDS011;9117;52.420;20.728;2023-04-15T03:44:04;25.37;;;14.20;;
17983;SDS011;9117;52.420;20.728;2023-04-15T03:46:32;23.83;;;14.77;;
17983;SDS011;9117;52.420;20.728;2023-04-15T03:49:00;25.13;;;14.73;;
17983;SDS011;9117;52.420;20.728;2023-04-15T03:51:29;27.20;;;15.27;;
17983;SDS011;9117;52.420;20.728;2023-04-15T03:53:57;26.67;;;14.00;;
17983;SDS011;9117;52.420;20.728;2023-04-15T03:56:25;27.27;;;16.10;;
17983;SDS011;9117;52.420;20.728;2023-04-15T03:58:54;28.02;;;14.50;;
17983;SDS011;9117;52.420;20.728;2023-04-15T04:01:23;23.58;;;14.35;;
17983;SDS011;9117;52.420;20.728;2023-04-15T04:03:51;27.37;;;14.63;;
17983;SDS011;9117;52.420;20.728;2023-04-15T04:06:20;22.70;;;13.73;;
17983;SDS011;9117;52.420;20.728;2023-04-15T04:08:48;22.67;;;13.33;;
17983;SDS011;9117;52.420;20.728;2023-04-15T04:11:16;24.13;;;13.20;;
17983;SDS011;9117;52.420;20.728;2023-04-15T04:13:44;24.87;;;13.90;;
17983;SDS011;9117;52.420;20.728;2023-04-15T04:16:13;22.97;;;14.27;;
17983;SDS011;9117;52.420;20.728;2023-04-15T04:18:43;22.47;;;13.00;;
17983;SDS011;9117;52.420;20.728;2023-04-15T04:21:11;21.77;;;13.77;;
17983;SDS011;9117;52.420;20.728;2023-04-15T04:23:40;24.20;;;14.07;;
17983;SDS011;9117;52.420;20.728;2023-04-15T04:26:08;23.80;;;14.43;;
17983;SDS011;9117;52.420;20.728;2023-04-15T04:28:36;21.00;;;13.20;;
17983;SDS011;9117;52.420;20.728;2023-04-15T04:31:05;23.23;;;13.73;;
17983;SDS011;9117;52.420;20.728;2023-04-15T04:33:34;21.57;;;13.03;;
17983;SDS011;9117;52.420;20.728;2023-04-15T04:36:04;23.33;;;13.33;;
17983;SDS011;9117;52.420;20.728;2023-04-15T04:38:32;23.13;;;13.20;;
17983;SDS011;9117;52.420;20.728;2023-04-15T04:41:01;20.80;;;13.03;;
17983;SDS011;9117;52.420;20.728;2023-04-15T04:43:29;21.67;;;12.97;;
17983;SDS011;9117;52.420;20.728;2023-04-15T04:45:57;19.97;;;12.67;;
17983;SDS011;9117;52.420;20.728;2023-04-15T04:48:25;22.70;;;13.00;;
17983;SDS011;9117;52.420;20.728;2023-04-15T04:50:54;19.63;;;12.57;;
17983;SDS011;9117;52.420;20.728;2023-04-15T04:53:23;19.20;;;12.07;;
17983;SDS011;9117;52.420;20.728;2023-04-15T04:55:53;22.03;;;12.50;;
17983;SDS011;9117;52.420;20.728;2023-04-15T04:58:21;22.70;;;13.47;;
17983;SDS011;9117;52.420;20.728;2023-04-15T05:00:49;22.00;;;12.47;;
17983;SDS011;9117;52.420;20.728;2023-04-15T05:03:18;20.10;;;12.23;;
17983;SDS011;9117;52.420;20.728;2023-04-15T05:05:46;19.77;;;12.30;;
17983;SDS011;9117;52.420;20.728;2023-04-15T05:08:15;22.47;;;12.77;;
17983;SDS011;9117;52.420;20.728;2023-04-15T05:10:45;25.60;;;12.37;;
17983;SDS011;9117;52.420;20.728;2023-04-15T05:13:13;19.00;;;11.50;;
17983;SDS011;9117;52.420;20.728;2023-04-15T05:15:41;16.77;;;11.33;;
17983;SDS011;9117;52.420;20.728;2023-04-15T05:18:10;19.73;;;12.00;;
17983;SDS011;9117;52.420;20.728;2023-04-15T05:20:38;18.17;;;12.03;;
17983;SDS011;9117;52.420;20.728;2023-04-15T05:23:07;19.43;;;11.70;;
17983;SDS011;9117;52.420;20.728;2023-04-15T05:25:35;21.73;;;12.07;;
17983;SDS011;9117;52.420;20.728;2023-04-15T05:28:05;20.98;;;12.02;;
17983;SDS011;9117;52.420;20.728;2023-04-15T05:30:33;21.80;;;12.30;;
17983;SDS011;9117;52.420;20.728;2023-04-15T05:33:01;19.90;;;12.32;;
17983;SDS011;9117;52.420;20.728;2023-04-15T05:35:30;22.05;;;12.50;;
17983;SDS011;9117;52.420;20.728;2023-04-15T05:37:59;20.90;;;12.95;;
17983;SDS011;9117;52.420;20.728;2023-04-15T05:40:27;21.90;;;13.07;;
17983;SDS011;9117;52.420;20.728;2023-04-15T05:42:55;26.08;;;13.65;;
17983;SDS011;9117;52.420;20.728;2023-04-15T05:45:25;20.67;;;12.67;;
17983;SDS011;9117;52.420;20.728;2023-04-15T05:47:53;22.70;;;13.33;;
17983;SDS011;9117;52.420;20.728;2023-04-15T05:50:22;22.83;;;12.93;;
17983;SDS011;9117;52.420;20.728;2023-04-15T05:52:50;21.40;;;12.63;;
17983;SDS011;9117;52.420;20.728;2023-04-15T05:55:18;21.00;;;13.77;;
17983;SDS011;9117;52.420;20.728;2023-04-15T05:57:47;22.73;;;12.60;;
17983;SDS011;9117;52.420;20.728;2023-04-15T06:00:15;21.47;;;13.60;;
17983;SDS011;9117;52.420;20.728;2023-04-15T06:02:45;22.00;;;13.27;;
17983;SDS011;9117;52.420;20.728;2023-04-15T06:05:14;24.73;;;14.07;;
17983;SDS011;9117;52.420;20.728;2023-04-15T06:07:42;24.80;;;14.13;;
17983;SDS011;9117;52.420;20.728;2023-04-15T06:10:13;22.63;;;12.70;;
17983;SDS011;9117;52.420;20.728;2023-04-15T06:12:42;22.07;;;13.60;;
17983;SDS011;9117;52.420;20.728;2023-04-15T06:15:10;22.00;;;13.10;;
17983;SDS011;9117;52.420;20.728;2023-04-15T06:17:39;23.38;;;13.38;;
17983;SDS011;9117;52.420;20.728;2023-04-15T06:20:09;25.53;;;13.53;;
17983;SDS011;9117;52.420;20.728;2023-04-15T06:22:38;21.63;;;13.63;;
17983;SDS011;9117;52.420;20.728;2023-04-15T06:25:07;21.23;;;13.33;;
17983;SDS011;9117;52.420;20.728;2023-04-15T06:27:36;22.30;;;14.00;;
17983;SDS011;9117;52.420;20.728;2023-04-15T06:30:04;22.47;;;14.17;;
17983;SDS011;9117;52.420;20.728;2023-04-15T06:32:33;20.07;;;12.60;;
17983;SDS011;9117;52.420;20.728;2023-04-15T06:35:02;21.13;;;12.93;;
17983;SDS011;9117;52.420;20.728;2023-04-15T06:37:32;20.77;;;12.57;;
17983;SDS011;9117;52.420;20.728;2023-04-15T06:40:00;20.13;;;11.97;;
17983;SDS011;9117;52.420;20.728;2023-04-15T06:42:30;22.10;;;13.13;;
17983;SDS011;9117;52.420;20.728;2023-04-15T06:44:59;20.20;;;12.03;;
17983;SDS011;9117;52.420;20.728;2023-04-15T06:47:27;24.47;;;12.60;;
17983;SDS011;9117;52.420;20.728;2023-04-15T06:49:56;21.67;;;13.55;;
17983;SDS011;9117;52.420;20.728;2023-04-15T06:52:24;21.87;;;13.17;;
17983;SDS011;9117;52.420;20.728;2023-04-15T06:54:53;24.40;;;11.50;;
17983;SDS011;9117;52.420;20.728;2023-04-15T06:57:22;21.47;;;12.27;;
17983;SDS011;9117;52.420;20.728;2023-04-15T06:59:51;21.10;;;12.73;;
17983;SDS011;9117;52.420;20.728;2023-04-15T07:02:20;22.47;;;12.70;;
17983;SDS011;9117;52.420;20.728;2023-04-15T07:04:48;24.40;;;12.90;;
17983;SDS011;9117;52.420;20.728;2023-04-15T07:07:16;22.23;;;12.57;;
17983;SDS011;9117;52.420;20.728;2023-04-15T07:09:44;20.60;;;12.83;;
17983;SDS011;9117;52.420;20.728;2023-04-15T07:12:14;20.60;;;12.80;;
17983;SDS011;9117;52.420;20.728;2023-04-15T07:14:42;19.75;;;11.38;;
17983;SDS011;9117;52.420;20.728;2023-04-15T07:17:11;20.70;;;12.65;;
17983;SDS011;9117;52.420;20.728;2023-04-15T07:19:39;23.47;;;12.40;;
17983;SDS011;9117;52.420;20.728;2023-04-15T07:22:07;18.40;;;11.55;;
17983;SDS011;9117;52.420;20.728;2023-04-15T07:24:35;19.83;;;12.30;;
17983;SDS011;9117;52.420;20.728;2023-04-15T07:27:04;17.83;;;11.67;;
17983;SDS011;9117;52.420;20.728;2023-04-15T07:29:33;19.73;;;12.03;;
17983;SDS011;9117;52.420;20.728;2023-04-15T07:32:03;22.03;;;12.67;;
17983;SDS011;9117;52.420;20.728;2023-04-15T07:34:32;25.20;;;14.00;;
17983;SDS011;9117;52.420;20.728;2023-04-15T07:37:00;19.37;;;11.73;;
17983;SDS011;9117;52.420;20.728;2023-04-15T07:39:28;21.77;;;12.60;;
17983;SDS011;9117;52.420;20.728;2023-04-15T07:41:57;20.60;;;12.40;;
17983;SDS011;9117;52.420;20.728;2023-04-15T07:44:25;19.73;;;11.23;;
17983;SDS011;9117;52.420;20.728;2023-04-15T07:46:55;21.23;;;12.00;;
17983;SDS011;9117;52.420;20.728;2023-04-15T07:49:23;17.45;;;11.07;;
17983;SDS011;9117;52.420;20.728;2023-04-15T07:51:51;21.77;;;12.23;;
17983;SDS011;9117;52.420;20.728;2023-04-15T07:54:20;19.80;;;11.32;;
17983;SDS011;9117;52.420;20.728;2023-04-15T07:56:48;16.60;;;10.70;;
17983;SDS011;9117;52.420;20.728;2023-04-15T07:59:16;17.30;;;11.43;;
17983;SDS011;9117;52.420;20.728;2023-04-15T08:01:44;16.98;;;9.63;;
17983;SDS011;9117;52.420;20.728;2023-04-15T08:04:14;16.13;;;10.13;;
17983;SDS011;9117;52.420;20.728;2023-04-15T08:06:43;18.67;;;9.90;;
17983;SDS011;9117;52.420;20.728;2023-04-15T08:09:13;17.50;;;9.20;;
17983;SDS011;9117;52.420;20.728;2023-04-15T08:11:41;14.00;;;8.63;;
17983;SDS011;9117;52.420;20.728;2023-04-15T08:14:09;13.73;;;8.97;;
17983;SDS011;9117;52.420;20.728;2023-04-15T08:16:37;16.90;;;9.80;;
17983;SDS011;9117;52.420;20.728;2023-04-15T08:19:06;14.65;;;8.88;;
17983;SDS011;9117;52.420;20.728;2023-04-15T08:21:36;13.63;;;8.23;;
17983;SDS011;9117;52.420;20.728;2023-04-15T08:24:04;15.90;;;8.63;;
17983;SDS011;9117;52.420;20.728;2023-04-15T08:26:33;14.68;;;8.55;;
17983;SDS011;9117;52.420;20.728;2023-04-15T08:29:01;14.90;;;8.43;;
17983;SDS011;9117;52.420;20.728;2023-04-15T08:31:30;12.10;;;7.93;;
17983;SDS011;9117;52.420;20.728;2023-04-15T08:34:01;13.40;;;9.17;;
17983;SDS011;9117;52.420;20.728;2023-04-15T08:36:30;14.77;;;9.00;;
17983;SDS011;9117;52.420;20.728;2023-04-15T08:39:00;15.20;;;8.65;;
17983;SDS011;9117;52.420;20.728;2023-04-15T08:41:31;15.50;;;9.85;;
17983;SDS011;9117;52.420;20.728;2023-04-15T08:44:06;13.07;;;7.87;;
17983;SDS011;9117;52.420;20.728;2023-04-15T08:46:36;12.57;;;7.72;;
17983;SDS011;9117;52.420;20.728;2023-04-15T08:49:05;17.00;;;8.60;;
17983;SDS011;9117;52.420;20.728;2023-04-15T08:51:37;13.40;;;8.65;;
17983;SDS011;9117;52.420;20.728;2023-04-15T08:54:07;13.25;;;8.50;;
17983;SDS011;9117;52.420;20.728;2023-04-15T08:56:37;12.68;;;8.00;;
17983;SDS011;9117;52.420;20.728;2023-04-15T08:59:06;12.37;;;7.43;;
17983;SDS011;9117;52.420;20.728;2023-04-15T09:01:35;13.32;;;7.55;;
17983;SDS011;9117;52.420;20.728;2023-04-15T09:04:04;11.98;;;6.63;;
17983;SDS011;9117;52.420;20.728;2023-04-15T09:06:33;10.77;;;7.03;;
17983;SDS011;9117;52.420;20.728;2023-04-15T09:09:02;12.27;;;7.13;;
17983;SDS011;9117;52.420;20.728;2023-04-15T09:11:31;11.10;;;7.30;;
17983;SDS011;9117;52.420;20.728;2023-04-15T09:14:00;11.23;;;7.03;;
17983;SDS011;9117;52.420;20.728;2023-04-15T09:16:29;9.50;;;6.90;;
17983;SDS011;9117;52.420;20.728;2023-04-15T09:18:57;12.13;;;7.15;;
17983;SDS011;9117;52.420;20.728;2023-04-15T09:21:26;12.52;;;7.53;;
17983;SDS011;9117;52.420;20.728;2023-04-15T09:23:55;10.43;;;6.87;;
17983;SDS011;9117;52.420;20.728;2023-04-15T09:26:33;13.90;;;7.47;;
17983;SDS011;9117;52.420;20.728;2023-04-15T09:29:03;10.70;;;6.78;;
17983;SDS011;9117;52.420;20.728;2023-04-15T09:31:33;10.13;;;6.88;;
17983;SDS011;9117;52.420;20.728;2023-04-15T09:34:02;12.32;;;7.55;;
17983;SDS011;9117;52.420;20.728;2023-04-15T09:36:35;10.02;;;6.82;;
17983;SDS011;9117;52.420;20.728;2023-04-15T09:39:18;10.13;;;6.68;;
17983;SDS011;9117;52.420;20.728;2023-04-15T09:41:48;9.98;;;6.43;;
17983;SDS011;9117;52.420;20.728;2023-04-15T09:44:32;11.32;;;6.10;;
17983;SDS011;9117;52.420;20.728;2023-04-15T09:47:01;9.48;;;6.00;;
17983;SDS011;9117;52.420;20.728;2023-04-15T09:49:30;9.82;;;6.32;;
17983;SDS011;9117;52.420;20.728;2023-04-15T09:51:59;8.13;;;5.50;;
17983;SDS011;9117;52.420;20.728;2023-04-15T09:54:32;8.52;;;5.88;;
17983;SDS011;9117;52.420;20.728;2023-04-15T09:57:06;8.82;;;5.53;;
17983;SDS011;9117;52.420;20.728;2023-04-15T09:59:36;8.15;;;5.63;;
17983;SDS011;9117;52.420;20.728;2023-04-15T10:02:04;8.02;;;5.40;;
17983;SDS011;9117;52.420;20.728;2023-04-15T10:04:34;8.38;;;5.20;;
17983;SDS011;9117;52.420;20.728;2023-04-15T10:07:05;10.32;;;5.65;;
17983;SDS011;9117;52.420;20.728;2023-04-15T10:09:35;7.85;;;5.28;;
17983;SDS011;9117;52.420;20.728;2023-04-15T10:12:05;7.25;;;5.30;;
17983;SDS011;9117;52.420;20.728;2023-04-15T10:14:35;7.57;;;5.35;;
17983;SDS011;9117;52.420;20.728;2023-04-15T10:17:06;8.40;;;5.28;;
17983;SDS011;9117;52.420;20.728;2023-04-15T10:19:37;8.50;;;5.45;;
17983;SDS011;9117;52.420;20.728;2023-04-15T10:22:12;8.77;;;5.38;;
17983;SDS011;9117;52.420;20.728;2023-04-15T10:25:17;9.40;;;5.85;;
17983;SDS011;9117;52.420;20.728;2023-04-15T10:27:47;9.10;;;5.30;;
17983;SDS011;9117;52.420;20.728;2023-04-15T10:30:18;8.05;;;5.50;;
17983;SDS011;9117;52.420;20.728;2023-04-15T10:32:46;8.15;;;5.63;;
17983;SDS011;9117;52.420;20.728;2023-04-15T10:35:16;8.57;;;5.95;;
17983;SDS011;9117;52.420;20.728;2023-04-15T10:37:45;10.57;;;6.07;;
17983;SDS011;9117;52.420;20.728;2023-04-15T10:40:23;8.00;;;5.40;;
17983;SDS011;9117;52.420;20.728;2023-04-15T10:42:54;8.45;;;4.78;;
17983;SDS011;9117;52.420;20.728;2023-04-15T10:45:26;7.85;;;5.10;;
17983;SDS011;9117;52.420;20.728;2023-04-15T10:48:00;7.03;;;5.20;;
17983;SDS011;9117;52.420;20.728;2023-04-15T10:50:30;6.95;;;5.15;;
17983;SDS011;9117;52.420;20.728;2023-04-15T10:52:58;8.45;;;5.53;;
17983;SDS011;9117;52.420;20.728;2023-04-15T10:55:30;8.02;;;4.97;;
17983;SDS011;9117;52.420;20.728;2023-04-15T10:58:01;8.93;;;5.32;;
17983;SDS011;9117;52.420;20.728;2023-04-15T11:00:29;7.57;;;5.35;;
17983;SDS011;9117;52.420;20.728;2023-04-15T11:03:04;8.60;;;5.70;;
17983;SDS011;9117;52.420;20.728;2023-04-15T11:05:49;7.85;;;4.93;;
17983;SDS011;9117;52.420;20.728;2023-04-15T11:08:18;8.93;;;5.25;;
17983;SDS011;9117;52.420;20.728;2023-04-15T11:11:07;7.45;;;5.22;;
17983;SDS011;9117;52.420;20.728;2023-04-15T11:13:36;7.57;;;5.22;;
17983;SDS011;9117;52.420;20.728;2023-04-15T11:16:15;8.10;;;5.68;;
17983;SDS011;9117;52.420;20.728;2023-04-15T11:18:52;7.65;;;5.72;;
17983;SDS011;9117;52.420;20.728;2023-04-15T11:21:23;7.38;;;5.65;;
17983;SDS011;9117;52.420;20.728;2023-04-15T11:23:53;7.50;;;5.00;;
17983;SDS011;9117;52.420;20.728;2023-04-15T11:26:24;6.75;;;5.03;;
17983;SDS011;9117;52.420;20.728;2023-04-15T11:28:54;6.65;;;5.10;;
17983;SDS011;9117;52.420;20.728;2023-04-15T11:31:25;7.93;;;4.97;;
17983;SDS011;9117;52.420;20.728;2023-04-15T11:33:55;7.32;;;5.47;;
17983;SDS011;9117;52.420;20.728;2023-04-15T11:36:25;7.10;;;4.80;;
17983;SDS011;9117;52.420;20.728;2023-04-15T11:38:54;8.05;;;4.90;;
17983;SDS011;9117;52.420;20.728;2023-04-15T11:41:24;8.90;;;5.78;;
17983;SDS011;9117;52.420;20.728;2023-04-15T11:43:52;6.82;;;5.03;;
17983;SDS011;9117;52.420;20.728;2023-04-15T11:46:27;8.32;;;5.35;;
17983;SDS011;9117;52.420;20.728;2023-04-15T11:48:56;7.88;;;5.25;;
17983;SDS011;9117;52.420;20.728;2023-04-15T11:51:25;6.68;;;4.68;;
17983;SDS011;9117;52.420;20.728;2023-04-15T11:53:58;8.18;;;5.25;;
17983;SDS011;9117;52.420;20.728;2023-04-15T11:56:26;9.05;;;5.32;;
17983;SDS011;9117;52.420;20.728;2023-04-15T11:58:55;8.85;;;5.47;;
17983;SDS011;9117;52.420;20.728;2023-04-15T12:01:33;7.93;;;5.32;;
17983;SDS011;9117;52.420;20.728;2023-04-15T12:04:01;7.13;;;4.90;;
17983;SDS011;9117;52.420;20.728;2023-04-15T12:06:38;7.32;;;4.60;;
17983;SDS011;9117;52.420;20.728;2023-04-15T12:09:07;6.53;;;4.85;;
17983;SDS011;9117;52.420;20.728;2023-04-15T12:11:38;6.53;;;4.63;;
17983;SDS011;9117;52.420;20.728;2023-04-15T12:14:08;5.78;;;3.92;;
17983;SDS011;9117;52.420;20.728;2023-04-15T12:16:41;6.43;;;4.07;;
17983;SDS011;9117;52.420;20.728;2023-04-15T12:19:15;5.95;;;4.18;;
17983;SDS011;9117;52.420;20.728;2023-04-15T12:21:45;6.10;;;4.50;;
17983;SDS011;9117;52.420;20.728;2023-04-15T12:24:14;6.95;;;4.50;;
17983;SDS011;9117;52.420;20.728;2023-04-15T12:26:47;6.28;;;4.43;;
17983;SDS011;9117;52.420;20.728;2023-04-15T12:29:24;5.30;;;3.95;;
17983;SDS011;9117;52.420;20.728;2023-04-15T12:31:55;6.22;;;4.30;;
17983;SDS011;9117;52.420;20.728;2023-04-15T12:34:25;6.22;;;4.20;;
17983;SDS011;9117;52.420;20.728;2023-04-15T12:36:55;7.03;;;4.53;;
17983;SDS011;9117;52.420;20.728;2023-04-15T12:39:24;8.18;;;5.07;;
17983;SDS011;9117;52.420;20.728;2023-04-15T12:41:56;9.05;;;4.90;;
17983;SDS011;9117;52.420;20.728;2023-04-15T12:44:26;7.55;;;4.88;;
17983;SDS011;9117;52.420;20.728;2023-04-15T12:46:56;6.28;;;4.50;;
17983;SDS011;9117;52.420;20.728;2023-04-15T12:49:25;7.25;;;4.50;;
17983;SDS011;9117;52.420;20.728;2023-04-15T12:51:54;7.70;;;4.95;;
17983;SDS011;9117;52.420;20.728;2023-04-15T12:54:24;7.70;;;4.70;;
17983;SDS011;9117;52.420;20.728;2023-04-15T12:56:53;7.85;;;4.55;;
17983;SDS011;9117;52.420;20.728;2023-04-15T12:59:22;5.93;;;4.05;;
17983;SDS011;9117;52.420;20.728;2023-04-15T13:01:51;5.18;;;4.03;;
17983;SDS011;9117;52.420;20.728;2023-04-15T13:04:21;5.60;;;3.90;;
17983;SDS011;9117;52.420;20.728;2023-04-15T13:06:50;5.38;;;3.85;;
17983;SDS011;9117;52.420;20.728;2023-04-15T13:09:18;4.53;;;3.80;;
17983;SDS011;9117;52.420;20.728;2023-04-15T13:11:46;5.07;;;3.83;;
17983;SDS011;9117;52.420;20.728;2023-04-15T13:14:16;8.48;;;3.72;;
17983;SDS011;9117;52.420;20.728;2023-04-15T13:16:44;5.35;;;3.92;;
17983;SDS011;9117;52.420;20.728;2023-04-15T13:19:12;6.25;;;3.90;;
17983;SDS011;9117;52.420;20.728;2023-04-15T13:21:42;7.45;;;4.75;;
17983;SDS011;9117;52.420;20.728;2023-04-15T13:24:10;7.68;;;4.65;;
17983;SDS011;9117;52.420;20.728;2023-04-15T13:26:39;7.07;;;4.57;;
17983;SDS011;9117;52.420;20.728;2023-04-15T13:29:07;8.20;;;4.50;;
17983;SDS011;9117;52.420;20.728;2023-04-15T13:31:36;11.68;;;5.95;;
17983;SDS011;9117;52.420;20.728;2023-04-15T13:34:05;5.63;;;4.32;;
17983;SDS011;9117;52.420;20.728;2023-04-15T13:36:33;5.75;;;3.67;;
17983;SDS011;9117;52.420;20.728;2023-04-15T13:39:03;5.82;;;3.88;;
17983;SDS011;9117;52.420;20.728;2023-04-15T13:41:31;5.90;;;3.25;;
17983;SDS011;9117;52.420;20.728;2023-04-15T13:43:59;4.47;;;3.42;;
17983;SDS011;9117;52.420;20.728;2023-04-15T13:46:28;5.70;;;3.40;;
17983;SDS011;9117;52.420;20.728;2023-04-15T13:48:56;5.03;;;3.72;;
17983;SDS011;9117;52.420;20.728;2023-04-15T13:51:24;4.88;;;3.47;;
17983;SDS011;9117;52.420;20.728;2023-04-15T13:53:53;5.50;;;3.75;;
17983;SDS011;9117;52.420;20.728;2023-04-15T13:56:23;6.07;;;3.70;;
17983;SDS011;9117;52.420;20.728;2023-04-15T13:58:51;5.45;;;3.70;;
17983;SDS011;9117;52.420;20.728;2023-04-15T14:01:24;3.58;;;2.97;;
17983;SDS011;9117;52.420;20.728;2023-04-15T14:03:52;5.07;;;3.35;;
17983;SDS011;9117;52.420;20.728;2023-04-15T14:06:21;3.47;;;2.65;;
17983;SDS011;9117;52.420;20.728;2023-04-15T14:08:49;3.88;;;2.28;;
17983;SDS011;9117;52.420;20.728;2023-04-15T14:11:18;2.50;;;2.03;;
17983;SDS011;9117;52.420;20.728;2023-04-15T14:13:47;3.60;;;2.08;;
17983;SDS011;9117;52.420;20.728;2023-04-15T14:16:16;5.05;;;1.90;;
17983;SDS011;9117;52.420;20.728;2023-04-15T14:18:44;6.13;;;2.20;;
17983;SDS011;9117;52.420;20.728;2023-04-15T14:21:12;3.33;;;1.85;;
17983;SDS011;9117;52.420;20.728;2023-04-15T14:23:40;2.88;;;1.90;;
17983;SDS011;9117;52.420;20.728;2023-04-15T14:26:09;2.72;;;1.95;;
17983;SDS011;9117;52.420;20.728;2023-04-15T14:28:37;4.05;;;2.00;;
17983;SDS011;9117;52.420;20.728;2023-04-15T14:31:06;3.05;;;2.08;;
17983;SDS011;9117;52.420;20.728;2023-04-15T14:33:35;4.82;;;2.40;;
17983;SDS011;9117;52.420;20.728;2023-04-15T14:36:03;3.65;;;2.30;;
17983;SDS011;9117;52.420;20.728;2023-04-15T14:38:33;2.85;;;2.28;;
17983;SDS011;9117;52.420;20.728;2023-04-15T14:41:03;4.07;;;2.35;;
17983;SDS011;9117;52.420;20.728;2023-04-15T14:43:32;3.20;;;2.55;;
17983;SDS011;9117;52.420;20.728;2023-04-15T14:46:00;5.47;;;2.58;;